createdAt,value
2022-08-19T00:01:55.629Z,7.55
2022-08-19T00:04:26.588Z,7.13
2022-08-19T00:06:54.677Z,7.30
2022-08-19T00:09:23.305Z,7.35
2022-08-19T00:11:50.924Z,7.75
2022-08-19T00:14:18.829Z,7.78
2022-08-19T00:16:47.950Z,7.25
2022-08-19T00:19:16.189Z,7.43
2022-08-19T00:21:44.153Z,7.57
2022-08-19T00:24:13.022Z,8.20
2022-08-19T00:26:40.865Z,7.88
2022-08-19T00:29:09.695Z,7.20
2022-08-19T00:31:36.795Z,7.40
2022-08-19T00:34:04.095Z,7.93
2022-08-19T00:36:30.881Z,8.23
2022-08-19T00:38:57.546Z,7.60
2022-08-19T00:41:25.233Z,7.72
2022-08-19T00:44:26.629Z,7.35
2022-08-19T00:46:58.747Z,8.63
2022-08-19T00:49:44.546Z,7.63
2022-08-19T00:52:17.692Z,7.65
2022-08-19T00:54:52.335Z,7.53
2022-08-19T00:57:24.182Z,7.18
2022-08-19T01:00:01.509Z,7.57
2022-08-19T01:02:31.436Z,6.97
2022-08-19T01:04:58.402Z,7.38
2022-08-19T01:07:25.645Z,7.82
2022-08-19T01:09:53.117Z,7.50
2022-08-19T01:12:19.757Z,7.00
2022-08-19T01:14:51.028Z,7.28
2022-08-19T01:17:19.104Z,8.35
2022-08-19T01:19:49.539Z,7.35
2022-08-19T01:22:31.429Z,6.78
2022-08-19T01:27:29.576Z,7.85
2022-08-19T01:30:02.118Z,8.02
2022-08-19T01:32:32.238Z,8.88
2022-08-19T01:35:04.804Z,8.68
2022-08-19T01:37:43.128Z,8.65
2022-08-19T01:40:10.840Z,8.15
2022-08-19T01:42:37.956Z,9.15
2022-08-19T01:45:06.689Z,8.63
2022-08-19T01:47:36.165Z,8.35
2022-08-19T01:50:05.004Z,8.38
2022-08-19T01:52:31.607Z,9.02
2022-08-19T01:54:58.270Z,8.57
2022-08-19T01:57:27.344Z,8.30
2022-08-19T01:59:55.702Z,8.60
2022-08-19T02:02:22.338Z,7.82
2022-08-19T02:04:49.217Z,8.98
2022-08-19T02:07:16.110Z,9.02
2022-08-19T02:09:43.217Z,7.88
2022-08-19T02:12:10.511Z,9.05
2022-08-19T02:14:37.748Z,9.75
2022-08-19T02:17:04.727Z,8.93
2022-08-19T02:19:33.415Z,8.50
2022-08-19T02:22:00.749Z,10.00
2022-08-19T02:24:28.312Z,9.43
2022-08-19T02:26:55.210Z,9.02
2022-08-19T02:29:23.036Z,8.45
2022-08-19T02:31:49.611Z,8.63
2022-08-19T02:34:16.753Z,7.97
2022-08-19T02:36:43.493Z,8.98
2022-08-19T02:39:10.889Z,8.63
2022-08-19T02:41:37.629Z,9.38
2022-08-19T02:44:29.969Z,8.73
2022-08-19T02:46:52.603Z,9.20
2022-08-19T02:49:20.641Z,9.18
2022-08-19T02:51:48.000Z,8.48
2022-08-19T02:54:15.694Z,8.52
2022-08-19T02:56:45.077Z,9.10
2022-08-19T02:59:12.654Z,8.30
2022-08-19T03:01:41.483Z,8.98
2022-08-19T03:04:11.633Z,8.82
2022-08-19T03:06:41.016Z,8.95
2022-08-19T03:09:08.407Z,8.45
2022-08-19T03:11:36.443Z,9.43
2022-08-19T03:14:04.683Z,8.27
2022-08-19T03:16:36.510Z,8.32
2022-08-19T03:19:03.967Z,7.88
2022-08-19T03:21:33.104Z,8.55
2022-08-19T03:24:03.683Z,8.57
2022-08-19T03:26:30.909Z,9.35
2022-08-19T03:28:58.085Z,9.05
2022-08-19T03:31:44.116Z,7.65
2022-08-19T03:34:21.148Z,8.50
2022-08-19T03:36:48.472Z,7.45
2022-08-19T03:39:16.329Z,8.43
2022-08-19T03:41:46.516Z,7.50
2022-08-19T03:44:19.023Z,8.20
2022-08-19T03:46:56.293Z,8.35
2022-08-19T03:49:28.361Z,7.80
2022-08-19T03:51:57.673Z,8.40
2022-08-19T03:54:26.126Z,7.97
2022-08-19T03:56:56.842Z,8.00
2022-08-19T03:59:30.850Z,8.88
2022-08-19T04:02:00.686Z,7.53
2022-08-19T04:04:29.286Z,9.30
2022-08-19T04:06:57.226Z,8.57
2022-08-19T04:09:23.853Z,8.38
2022-08-19T04:11:56.989Z,8.40
2022-08-19T04:14:30.401Z,7.90
2022-08-19T04:16:58.154Z,8.18
2022-08-19T04:19:24.758Z,8.15
2022-08-19T04:21:53.622Z,7.75
2022-08-19T04:24:23.266Z,7.95
2022-08-19T04:26:50.740Z,8.00
2022-08-19T04:29:22.694Z,8.68
2022-08-19T04:31:50.153Z,8.70
2022-08-19T04:34:23.166Z,7.95
2022-08-19T04:36:52.217Z,7.82
2022-08-19T04:39:45.662Z,8.15
2022-08-19T04:42:31.453Z,7.80
2022-08-19T04:44:59.555Z,9.23
2022-08-19T04:47:47.660Z,7.72
2022-08-19T04:50:13.684Z,8.18
2022-08-19T04:52:43.747Z,8.60
2022-08-19T04:55:13.563Z,8.30
2022-08-19T04:57:41.658Z,8.90
2022-08-19T05:00:11.960Z,8.68
2022-08-19T05:02:39.557Z,8.73
2022-08-19T05:05:07.452Z,7.85
2022-08-19T05:07:34.477Z,8.48
2022-08-19T05:10:01.168Z,8.82
2022-08-19T05:12:29.676Z,8.68
2022-08-19T05:14:57.917Z,8.27
2022-08-19T05:17:28.479Z,9.55
2022-08-19T05:20:15.930Z,8.40
2022-08-19T05:22:45.895Z,8.45
2022-08-19T05:25:19.291Z,8.68
2022-08-19T05:27:46.030Z,8.70
2022-08-19T05:30:13.467Z,8.73
2022-08-19T05:32:40.768Z,7.80
2022-08-19T05:35:09.314Z,9.45
2022-08-19T05:37:36.255Z,8.40
2022-08-19T05:40:04.020Z,8.48
2022-08-19T05:42:31.544Z,8.82
2022-08-19T05:44:58.198Z,8.50
2022-08-19T05:47:25.049Z,8.45
2022-08-19T05:49:51.983Z,8.23
2022-08-19T05:52:25.844Z,8.00
2022-08-19T05:54:56.008Z,8.40
2022-08-19T05:57:23.711Z,9.10
2022-08-19T05:59:52.842Z,7.97
2022-08-19T06:02:25.850Z,8.80
2022-08-19T06:04:52.666Z,7.78
2022-08-19T06:07:20.251Z,8.93
2022-08-19T06:09:56.019Z,9.20
2022-08-19T06:12:35.249Z,8.75
2022-08-19T06:15:07.487Z,8.77
2022-08-19T06:17:35.719Z,10.13
2022-08-19T06:20:05.607Z,9.23
2022-08-19T06:22:32.347Z,9.60
2022-08-19T06:24:58.996Z,9.40
2022-08-19T06:27:25.681Z,9.52
2022-08-19T06:29:52.691Z,8.70
2022-08-19T06:32:20.054Z,9.23
2022-08-19T06:34:47.497Z,8.68
2022-08-19T06:37:18.548Z,9.80
2022-08-19T06:39:45.679Z,9.45
2022-08-19T06:42:17.659Z,8.75
2022-08-19T06:44:49.924Z,9.18
2022-08-19T06:47:23.358Z,9.68
2022-08-19T06:50:00.982Z,10.40
2022-08-19T06:52:28.512Z,13.98
2022-08-19T06:54:57.072Z,9.60
2022-08-19T06:57:28.095Z,9.48
2022-08-19T06:59:56.899Z,9.07
2022-08-19T07:02:27.117Z,8.50
2022-08-19T07:04:54.670Z,10.02
2022-08-19T07:07:25.106Z,9.85
2022-08-19T07:09:59.124Z,10.18
2022-08-19T07:12:35.569Z,9.32
2022-08-19T07:15:05.047Z,9.75
2022-08-19T07:17:34.594Z,9.88
2022-08-19T07:20:04.997Z,10.48
2022-08-19T07:22:34.972Z,10.93
2022-08-19T07:25:03.682Z,9.45
2022-08-19T07:27:30.845Z,10.45
2022-08-19T07:30:01.089Z,10.85
2022-08-19T07:32:27.973Z,11.20
2022-08-19T07:34:57.862Z,10.68
2022-08-19T07:37:32.569Z,10.27
2022-08-19T07:40:01.263Z,11.50
2022-08-19T07:42:30.819Z,10.55
2022-08-19T07:44:59.325Z,10.48
2022-08-19T07:47:48.288Z,10.57
2022-08-19T07:50:13.468Z,10.98
2022-08-19T07:52:40.891Z,10.10
2022-08-19T07:55:11.396Z,10.10
2022-08-19T07:57:58.075Z,10.48
2022-08-19T08:00:25.323Z,10.30
2022-08-19T08:02:55.503Z,9.00
2022-08-19T08:05:44.304Z,9.48
2022-08-19T08:08:32.574Z,8.60
2022-08-19T08:11:00.645Z,10.32
2022-08-19T08:13:28.230Z,9.05
2022-08-19T08:15:56.691Z,10.27
2022-08-19T08:18:27.622Z,10.52
2022-08-19T08:20:56.483Z,9.13
2022-08-19T08:23:25.888Z,8.00
2022-08-19T08:25:55.905Z,10.23
2022-08-19T08:28:23.274Z,9.10
2022-08-19T08:30:51.077Z,9.25
2022-08-19T08:33:34.216Z,9.07
2022-08-19T08:36:11.883Z,8.77
2022-08-19T08:38:40.554Z,10.77
2022-08-19T08:41:35.776Z,9.27
2022-08-19T08:44:05.622Z,9.00
2022-08-19T08:46:41.632Z,7.28
2022-08-19T08:49:52.367Z,7.90
2022-08-19T08:52:32.098Z,8.05
2022-08-19T08:55:04.213Z,7.47
2022-08-19T08:57:48.214Z,7.07
2022-08-19T09:00:25.031Z,7.60
2022-08-19T09:02:51.978Z,8.05
2022-08-19T09:05:22.715Z,6.53
2022-08-19T09:08:14.760Z,7.00
2022-08-19T09:10:55.208Z,6.53
2022-08-19T09:13:32.169Z,6.63
2022-08-19T09:16:17.929Z,5.38
2022-08-19T09:18:53.398Z,5.38
2022-08-19T09:21:25.967Z,6.18
2022-08-19T09:23:58.929Z,5.50
2022-08-19T09:26:29.803Z,5.53
2022-08-19T09:29:14.173Z,5.80
2022-08-19T09:31:41.242Z,4.70
2022-08-19T09:34:07.857Z,5.53
2022-08-19T09:36:50.371Z,4.78
2022-08-19T09:39:18.009Z,4.60
2022-08-19T09:41:47.468Z,4.45
2022-08-19T09:44:16.493Z,5.30
2022-08-19T09:46:44.786Z,4.82
2022-08-19T09:49:11.620Z,4.82
2022-08-19T09:51:40.417Z,4.97
2022-08-19T09:54:07.779Z,5.22
2022-08-19T09:56:38.309Z,5.07
2022-08-19T09:59:05.158Z,5.03
2022-08-19T10:01:33.490Z,4.63
2022-08-19T10:04:06.412Z,5.28
2022-08-19T10:06:46.080Z,4.47
2022-08-19T10:09:16.226Z,5.53
2022-08-19T10:11:54.672Z,5.60
2022-08-19T10:14:24.503Z,5.55
2022-08-19T10:16:53.000Z,5.18
2022-08-19T10:19:26.229Z,4.45
2022-08-19T10:24:22.085Z,5.18
2022-08-19T10:26:57.161Z,4.85
2022-08-19T10:29:31.966Z,4.35
2022-08-19T10:34:31.959Z,4.15
2022-08-19T10:37:01.775Z,4.90
2022-08-19T10:39:41.049Z,4.63
2022-08-19T10:42:11.681Z,4.55
2022-08-19T10:44:38.698Z,4.88
2022-08-19T10:47:17.943Z,5.03
2022-08-19T10:50:14.725Z,5.35
2022-08-19T10:52:49.445Z,4.50
2022-08-19T10:55:41.264Z,4.22
2022-08-19T10:58:14.158Z,4.32
2022-08-19T11:00:41.668Z,5.10
2022-08-19T11:03:09.625Z,4.45
2022-08-19T11:05:40.456Z,5.20
2022-08-19T11:08:23.517Z,4.40
2022-08-19T11:10:57.669Z,4.07
2022-08-19T11:13:24.369Z,4.53
2022-08-19T11:16:07.928Z,4.13
2022-08-19T11:18:40.053Z,4.13
2022-08-19T11:21:20.228Z,4.30
2022-08-19T11:23:50.204Z,4.45
2022-08-19T11:26:18.147Z,4.68
2022-08-19T11:28:45.054Z,4.97
2022-08-19T11:31:14.828Z,4.20
2022-08-19T11:33:41.678Z,3.80
2022-08-19T11:36:15.161Z,3.77
2022-08-19T11:38:41.964Z,3.00
2022-08-19T11:41:09.008Z,4.00
2022-08-19T11:43:41.009Z,3.60
2022-08-19T11:46:10.775Z,3.78
2022-08-19T11:48:38.416Z,3.13
2022-08-19T11:51:09.679Z,4.20
2022-08-19T11:53:37.405Z,3.42
2022-08-19T11:56:04.774Z,3.17
2022-08-19T11:58:31.932Z,3.03
2022-08-19T12:00:59.098Z,3.38
2022-08-19T12:03:25.830Z,3.10
2022-08-19T12:05:53.012Z,3.40
2022-08-19T12:08:20.494Z,3.38
2022-08-19T12:10:47.349Z,3.38
2022-08-19T12:13:19.251Z,3.33
2022-08-19T12:15:47.918Z,3.28
2022-08-19T12:18:15.532Z,3.30
2022-08-19T12:20:44.171Z,3.03
2022-08-19T12:23:12.848Z,3.20
2022-08-19T12:25:50.900Z,3.47
2022-08-19T12:28:18.802Z,3.10
2022-08-19T12:30:46.066Z,3.30
2022-08-19T12:33:14.442Z,3.38
2022-08-19T12:35:47.409Z,3.25
2022-08-19T12:38:15.824Z,3.53
2022-08-19T12:40:47.186Z,3.80
2022-08-19T12:43:16.522Z,3.70
2022-08-19T12:45:43.667Z,3.42
2022-08-19T12:48:33.184Z,3.30
2022-08-19T12:50:57.709Z,3.42
2022-08-19T12:53:25.555Z,3.50
2022-08-19T12:56:00.725Z,3.55
2022-08-19T12:58:28.020Z,2.88
2022-08-19T13:00:54.804Z,3.35
2022-08-19T13:03:23.531Z,3.33
2022-08-19T13:05:51.775Z,3.08
2022-08-19T13:08:18.386Z,3.10
2022-08-19T13:10:45.176Z,2.90
2022-08-19T13:13:12.348Z,3.35
2022-08-19T13:15:41.101Z,3.00
2022-08-19T13:18:09.926Z,3.28
2022-08-19T13:20:38.585Z,3.13
2022-08-19T13:23:05.594Z,3.40
2022-08-19T13:25:32.696Z,2.95
2022-08-19T13:28:00.902Z,2.85
2022-08-19T13:30:46.608Z,3.30
2022-08-19T13:33:17.374Z,2.90
2022-08-19T13:35:48.118Z,3.00
2022-08-19T13:38:18.205Z,2.88
2022-08-19T13:40:47.213Z,2.97
2022-08-19T13:43:22.599Z,3.25
2022-08-19T13:45:57.435Z,3.00
2022-08-19T13:48:27.235Z,2.78
2022-08-19T13:50:54.999Z,2.60
2022-08-19T13:53:24.517Z,2.40
2022-08-19T13:55:54.538Z,2.60
2022-08-19T13:58:21.468Z,2.42
2022-08-19T14:00:49.337Z,2.30
2022-08-19T14:03:16.996Z,2.60
2022-08-19T14:05:43.675Z,2.55
2022-08-19T14:08:10.521Z,2.45
2022-08-19T14:10:37.203Z,2.58
2022-08-19T14:13:04.899Z,2.78
2022-08-19T14:15:32.538Z,2.60
2022-08-19T14:18:01.392Z,2.42
2022-08-19T14:20:28.201Z,2.42
2022-08-19T14:22:55.647Z,2.47
2022-08-19T14:25:26.368Z,2.60
2022-08-19T14:27:53.416Z,2.30
2022-08-19T14:30:29.594Z,2.30
2022-08-19T14:32:58.965Z,2.40
2022-08-19T14:35:27.138Z,2.38
2022-08-19T14:37:58.911Z,2.13
2022-08-19T14:40:28.001Z,2.10
2022-08-19T14:43:00.052Z,2.30
2022-08-19T14:45:28.763Z,2.22
2022-08-19T14:47:55.826Z,1.92
2022-08-19T14:50:24.230Z,1.73
2022-08-19T14:52:52.706Z,2.00
2022-08-19T14:55:19.373Z,2.00
2022-08-19T14:57:46.265Z,2.00
2022-08-19T15:00:14.483Z,2.20
2022-08-19T15:02:42.560Z,2.30
2022-08-19T15:05:09.913Z,2.13
2022-08-19T15:07:37.304Z,2.33
2022-08-19T15:10:08.345Z,2.15
2022-08-19T15:12:36.405Z,1.90
2022-08-19T15:15:03.809Z,2.20
2022-08-19T15:17:43.721Z,1.85
2022-08-19T15:20:19.925Z,1.88
2022-08-19T15:22:47.112Z,1.88
2022-08-19T15:25:16.001Z,2.38
2022-08-19T15:27:42.919Z,1.77
2022-08-19T15:30:11.487Z,1.80
2022-08-19T15:32:39.094Z,2.10
2022-08-19T15:35:07.921Z,2.15
2022-08-19T15:37:37.345Z,1.63
2022-08-19T15:40:07.416Z,1.80
2022-08-19T15:42:37.673Z,2.00
2022-08-19T15:45:09.929Z,1.80
2022-08-19T15:47:37.050Z,2.05
2022-08-19T15:50:10.798Z,1.80
2022-08-19T15:52:49.650Z,1.95
2022-08-19T15:55:33.736Z,2.00
2022-08-19T15:58:28.458Z,1.80
2022-08-19T16:01:20.816Z,1.65
2022-08-19T16:04:13.835Z,1.52
2022-08-19T16:06:48.497Z,1.70
2022-08-19T16:09:22.095Z,1.80
2022-08-19T16:11:56.708Z,2.25
2022-08-19T16:14:25.057Z,2.00
2022-08-19T16:16:51.684Z,1.80
2022-08-19T16:19:19.831Z,2.22
2022-08-19T16:21:49.237Z,1.90
2022-08-19T16:24:19.569Z,1.60
2022-08-19T16:26:48.657Z,1.85
2022-08-19T16:29:33.288Z,1.65
2022-08-19T16:32:01.293Z,1.60
2022-08-19T16:34:31.648Z,1.45
2022-08-19T16:36:58.240Z,1.67
2022-08-19T16:39:26.369Z,1.60
2022-08-19T16:41:53.102Z,1.60
2022-08-19T16:44:21.928Z,1.80
2022-08-19T16:46:58.680Z,1.70
2022-08-19T16:49:53.184Z,1.50
2022-08-19T16:52:19.484Z,1.90
2022-08-19T16:54:47.006Z,1.50
2022-08-19T16:57:14.215Z,1.70
2022-08-19T16:59:42.622Z,1.52
2022-08-19T17:02:21.985Z,1.60
2022-08-19T17:04:55.763Z,1.88
2022-08-19T17:07:29.355Z,1.67
2022-08-19T17:10:00.178Z,1.60
2022-08-19T17:12:32.209Z,1.70
2022-08-19T17:15:02.596Z,1.53
2022-08-19T17:17:31.163Z,1.60
2022-08-19T17:19:59.358Z,1.40
2022-08-19T17:22:26.490Z,1.40
2022-08-19T17:24:56.139Z,1.42
2022-08-19T17:27:24.720Z,1.60
2022-08-19T17:29:52.531Z,1.50
2022-08-19T17:32:24.895Z,1.73
2022-08-19T17:34:54.047Z,1.60
2022-08-19T17:37:20.925Z,1.50
2022-08-19T17:39:47.739Z,1.48
2022-08-19T17:42:14.425Z,1.80
2022-08-19T17:44:42.317Z,1.85
2022-08-19T17:47:12.929Z,1.60
2022-08-19T17:49:39.836Z,1.77
2022-08-19T17:52:09.955Z,1.63
2022-08-19T17:54:37.217Z,1.40
2022-08-19T17:57:03.959Z,2.10
2022-08-19T17:59:31.605Z,2.13
2022-08-19T18:01:59.365Z,1.77
2022-08-19T18:04:29.999Z,1.60
2022-08-19T18:06:57.834Z,1.60
2022-08-19T18:09:27.165Z,1.50
2022-08-19T18:11:56.771Z,1.40
2022-08-19T18:14:32.922Z,1.58
2022-08-19T18:17:12.342Z,1.92
2022-08-19T18:19:42.975Z,1.90
2022-08-19T18:22:30.545Z,1.80
2022-08-19T18:24:59.233Z,1.50
2022-08-19T18:27:27.869Z,1.55
2022-08-19T18:29:57.956Z,1.90
2022-08-19T18:32:26.809Z,1.60
2022-08-19T18:34:54.461Z,1.60
2022-08-19T18:37:21.884Z,1.85
2022-08-19T18:40:07.287Z,1.70
2022-08-19T18:42:54.321Z,1.48
2022-08-19T18:45:40.666Z,1.30
2022-08-19T18:48:29.025Z,1.90
2022-08-19T18:50:58.464Z,1.70
2022-08-19T18:53:27.701Z,1.40
2022-08-19T18:55:55.400Z,1.30
2022-08-19T18:58:32.192Z,1.30
2022-08-19T19:01:00.154Z,1.23
2022-08-19T19:03:26.916Z,1.52
2022-08-19T19:05:54.012Z,1.20
2022-08-19T19:08:20.669Z,1.20
2022-08-19T19:10:53.747Z,1.60
2022-08-19T19:13:20.382Z,1.23
2022-08-19T19:15:47.001Z,1.40
2022-08-19T19:18:14.407Z,1.40
2022-08-19T19:20:41.201Z,1.70
2022-08-19T19:23:08.548Z,1.40
2022-08-19T19:25:49.942Z,1.45
2022-08-19T19:28:28.926Z,1.55
2022-08-19T19:30:59.924Z,1.40
2022-08-19T19:33:27.986Z,1.63
2022-08-19T19:35:54.689Z,1.33
2022-08-19T19:38:21.295Z,1.50
2022-08-19T19:40:47.964Z,1.55
2022-08-19T19:43:18.108Z,1.50
2022-08-19T19:45:46.990Z,1.58
2022-08-19T19:48:14.822Z,1.63
2022-08-19T19:50:42.238Z,1.50
2022-08-19T19:53:09.029Z,1.30
2022-08-19T19:55:36.314Z,1.40
2022-08-19T19:58:06.824Z,1.60
2022-08-19T20:00:34.159Z,1.45
2022-08-19T20:03:01.380Z,1.80
2022-08-19T20:05:28.205Z,1.85
2022-08-19T20:08:14.463Z,1.60
2022-08-19T20:10:42.957Z,1.63
2022-08-19T20:13:11.646Z,1.75
2022-08-19T20:15:42.349Z,1.70
2022-08-19T20:18:11.071Z,1.75
2022-08-19T20:20:37.725Z,2.17
2022-08-19T20:23:04.452Z,2.67
2022-08-19T20:25:34.001Z,2.55
2022-08-19T20:28:01.291Z,2.13
2022-08-19T20:30:28.458Z,1.92
2022-08-19T20:32:58.776Z,1.75
2022-08-19T20:35:26.345Z,1.90
2022-08-19T20:37:58.011Z,1.80
2022-08-19T20:40:27.026Z,1.67
2022-08-19T20:42:54.588Z,1.40
2022-08-19T20:45:32.324Z,1.55
2022-08-19T20:48:02.205Z,1.92
2022-08-19T20:50:30.460Z,1.48
2022-08-19T20:52:57.652Z,1.73
2022-08-19T20:55:26.376Z,2.25
2022-08-19T20:57:53.148Z,1.85
2022-08-19T21:00:20.016Z,1.90
2022-08-19T21:02:47.016Z,1.70
2022-08-19T21:05:13.811Z,1.90
2022-08-19T21:07:40.941Z,1.60
2022-08-19T21:10:08.369Z,1.73
2022-08-19T21:12:35.420Z,1.60
2022-08-19T21:15:02.392Z,1.73
2022-08-19T21:17:29.345Z,2.20
2022-08-19T21:19:55.909Z,2.00
2022-08-19T21:22:31.093Z,1.90
2022-08-19T21:24:57.740Z,2.00
2022-08-19T21:27:24.368Z,2.10
2022-08-19T21:29:51.650Z,2.20
2022-08-19T21:32:19.833Z,2.10
2022-08-19T21:34:46.943Z,2.25
2022-08-19T21:37:18.986Z,2.50
2022-08-19T21:39:53.643Z,2.15
2022-08-19T21:42:22.355Z,2.20
2022-08-19T21:44:49.112Z,2.10
2022-08-19T21:47:15.945Z,2.50
2022-08-19T21:49:43.003Z,2.20
2022-08-19T21:52:09.652Z,2.45
2022-08-19T21:54:37.597Z,2.47
2022-08-19T21:57:10.106Z,2.20
2022-08-19T21:59:43.747Z,2.20
2022-08-19T22:02:21.463Z,2.33
2022-08-19T22:04:50.775Z,2.03
2022-08-19T22:07:20.581Z,2.40
2022-08-19T22:09:48.969Z,2.28
2022-08-19T22:12:25.897Z,2.17
2022-08-19T22:14:53.775Z,2.30
2022-08-19T22:17:22.892Z,2.30
2022-08-19T22:19:53.028Z,2.20
2022-08-19T22:22:28.866Z,2.20
2022-08-19T22:25:12.316Z,2.30
2022-08-19T22:27:39.316Z,2.17
2022-08-19T22:30:10.034Z,2.10
2022-08-19T22:32:37.425Z,2.30
2022-08-19T22:35:08.242Z,2.40
2022-08-19T22:37:35.208Z,2.35
2022-08-19T22:40:05.565Z,2.50
2022-08-19T22:42:32.967Z,2.30
2022-08-19T22:45:00.357Z,2.50
2022-08-19T22:47:27.427Z,2.58
2022-08-19T22:49:58.943Z,2.38
2022-08-19T22:52:25.685Z,2.95
2022-08-19T22:54:58.998Z,2.40
2022-08-19T22:57:27.433Z,2.45
2022-08-19T22:59:56.085Z,3.10
2022-08-19T23:02:38.149Z,2.90
2022-08-19T23:05:07.253Z,2.40
2022-08-19T23:07:34.369Z,2.92
2022-08-19T23:10:01.105Z,2.40
2022-08-19T23:12:33.351Z,2.72
2022-08-19T23:15:07.391Z,2.45
2022-08-19T23:17:35.240Z,2.53
2022-08-19T23:20:02.021Z,3.22
2022-08-19T23:22:30.344Z,2.97
2022-08-19T23:25:05.817Z,2.95
2022-08-19T23:27:51.240Z,3.13
2022-08-19T23:30:27.220Z,2.70
2022-08-19T23:33:01.644Z,2.97
2022-08-19T23:35:34.258Z,2.70
2022-08-19T23:38:03.754Z,2.60
2022-08-19T23:40:30.598Z,2.72
2022-08-19T23:42:57.381Z,3.08
2022-08-19T23:45:31.776Z,3.03
2022-08-19T23:48:00.076Z,3.28
2022-08-19T23:50:26.996Z,3.20
2022-08-19T23:52:57.959Z,2.97
2022-08-19T23:55:31.354Z,3.05
2022-08-19T23:57:59.782Z,3.47
